sensor_id;sensor_type;location;lat;lon;timestamp;P1;durP1;ratioP1;P2;durP2;ratioP2
29568;SDS011;16501;51.462;14.346;2023-03-01T00:00:10;18.00;;;8.88;;
29568;SDS011;16501;51.462;14.346;2023-03-01T00:02:36;19.75;;;9.57;;
29568;SDS011;16501;51.462;14.346;2023-03-01T00:05:02;19.45;;;9.30;;
29568;SDS011;16501;51.462;14.346;2023-03-01T00:07:29;18.77;;;10.02;;
29568;SDS011;16501;51.462;14.346;2023-03-01T00:09:54;18.02;;;8.60;;
29568;SDS011;16501;51.462;14.346;2023-03-01T00:12:21;22.48;;;9.82;;
29568;SDS011;16501;51.462;14.346;2023-03-01T00:14:47;24.60;;;10.40;;
29568;SDS011;16501;51.462;14.346;2023-03-01T00:17:13;22.30;;;9.90;;
29568;SDS011;16501;51.462;14.346;2023-03-01T00:19:39;25.85;;;10.93;;
29568;SDS011;16501;51.462;14.346;2023-03-01T00:22:04;24.00;;;10.95;;
29568;SDS011;16501;51.462;14.346;2023-03-01T00:24:29;21.70;;;9.70;;
29568;SDS011;16501;51.462;14.346;2023-03-01T00:26:55;19.27;;;9.45;;
29568;SDS011;16501;51.462;14.346;2023-03-01T00:29:22;22.23;;;10.13;;
29568;SDS011;16501;51.462;14.346;2023-03-01T00:31:47;20.90;;;9.50;;
29568;SDS011;16501;51.462;14.346;2023-03-01T00:34:12;23.25;;;10.02;;
29568;SDS011;16501;51.462;14.346;2023-03-01T00:36:38;19.72;;;8.92;;
29568;SDS011;16501;51.462;14.346;2023-03-01T00:39:04;24.20;;;10.45;;
29568;SDS011;16501;51.462;14.346;2023-03-01T00:41:30;21.52;;;10.35;;
29568;SDS011;16501;51.462;14.346;2023-03-01T00:43:56;22.52;;;10.13;;
29568;SDS011;16501;51.462;14.346;2023-03-01T00:46:22;20.58;;;9.65;;
29568;SDS011;16501;51.462;14.346;2023-03-01T00:48:48;22.95;;;11.10;;
29568;SDS011;16501;51.462;14.346;2023-03-01T00:51:17;26.27;;;11.52;;
29568;SDS011;16501;51.462;14.346;2023-03-01T00:53:43;24.05;;;11.02;;
29568;SDS011;16501;51.462;14.346;2023-03-01T00:56:09;25.05;;;11.80;;
29568;SDS011;16501;51.462;14.346;2023-03-01T00:58:35;23.92;;;11.15;;
29568;SDS011;16501;51.462;14.346;2023-03-01T01:01:00;19.95;;;9.20;;
29568;SDS011;16501;51.462;14.346;2023-03-01T01:03:26;19.95;;;9.90;;
29568;SDS011;16501;51.462;14.346;2023-03-01T01:05:52;17.55;;;8.60;;
29568;SDS011;16501;51.462;14.346;2023-03-01T01:08:18;26.15;;;8.90;;
29568;SDS011;16501;51.462;14.346;2023-03-01T01:10:44;16.88;;;9.27;;
29568;SDS011;16501;51.462;14.346;2023-03-01T01:13:09;23.58;;;11.10;;
29568;SDS011;16501;51.462;14.346;2023-03-01T01:15:34;23.38;;;10.15;;
29568;SDS011;16501;51.462;14.346;2023-03-01T01:18:00;27.27;;;11.00;;
29568;SDS011;16501;51.462;14.346;2023-03-01T01:20:25;24.13;;;9.68;;
29568;SDS011;16501;51.462;14.346;2023-03-01T01:22:50;21.85;;;9.20;;
29568;SDS011;16501;51.462;14.346;2023-03-01T01:25:16;20.52;;;10.50;;
29568;SDS011;16501;51.462;14.346;2023-03-01T01:27:41;23.35;;;10.90;;
29568;SDS011;16501;51.462;14.346;2023-03-01T01:30:07;21.10;;;10.05;;
29568;SDS011;16501;51.462;14.346;2023-03-01T01:32:32;23.27;;;9.68;;
29568;SDS011;16501;51.462;14.346;2023-03-01T01:34:57;24.52;;;10.52;;
29568;SDS011;16501;51.462;14.346;2023-03-01T01:37:22;23.38;;;10.35;;
29568;SDS011;16501;51.462;14.346;2023-03-01T01:39:47;24.20;;;10.52;;
29568;SDS011;16501;51.462;14.346;2023-03-01T01:42:15;27.52;;;10.35;;
29568;SDS011;16501;51.462;14.346;2023-03-01T01:44:42;22.35;;;9.85;;
29568;SDS011;16501;51.462;14.346;2023-03-01T01:47:10;27.23;;;10.82;;
29568;SDS011;16501;51.462;14.346;2023-03-01T01:49:39;22.20;;;10.68;;
29568;SDS011;16501;51.462;14.346;2023-03-01T01:52:11;29.02;;;11.68;;
29568;SDS011;16501;51.462;14.346;2023-03-01T01:54:38;22.50;;;11.37;;
29568;SDS011;16501;51.462;14.346;2023-03-01T01:57:17;23.88;;;10.60;;
29568;SDS011;16501;51.462;14.346;2023-03-01T01:59:45;25.63;;;9.75;;
29568;SDS011;16501;51.462;14.346;2023-03-01T02:02:12;23.90;;;10.15;;
29568;SDS011;16501;51.462;14.346;2023-03-01T02:04:37;29.98;;;11.48;;
29568;SDS011;16501;51.462;14.346;2023-03-01T02:07:13;23.15;;;11.32;;
29568;SDS011;16501;51.462;14.346;2023-03-01T02:09:41;23.08;;;11.60;;
29568;SDS011;16501;51.462;14.346;2023-03-01T02:12:06;25.77;;;10.98;;
29568;SDS011;16501;51.462;14.346;2023-03-01T02:14:32;24.00;;;10.40;;
29568;SDS011;16501;51.462;14.346;2023-03-01T02:16:57;25.52;;;11.85;;
29568;SDS011;16501;51.462;14.346;2023-03-01T02:22:17;26.52;;;11.80;;
29568;SDS011;16501;51.462;14.346;2023-03-01T02:27:09;26.52;;;10.77;;
29568;SDS011;16501;51.462;14.346;2023-03-01T02:29:34;25.23;;;10.18;;
29568;SDS011;16501;51.462;14.346;2023-03-01T02:32:00;26.58;;;12.48;;
29568;SDS011;16501;51.462;14.346;2023-03-01T02:34:27;21.13;;;9.98;;
29568;SDS011;16501;51.462;14.346;2023-03-01T02:37:01;19.77;;;10.23;;
29568;SDS011;16501;51.462;14.346;2023-03-01T02:39:29;23.05;;;10.43;;
29568;SDS011;16501;51.462;14.346;2023-03-01T02:41:56;21.73;;;11.10;;
29568;SDS011;16501;51.462;14.346;2023-03-01T02:44:22;21.63;;;11.05;;
29568;SDS011;16501;51.462;14.346;2023-03-01T02:46:48;25.60;;;11.63;;
29568;SDS011;16501;51.462;14.346;2023-03-01T02:54:28;32.08;;;11.85;;
29568;SDS011;16501;51.462;14.346;2023-03-01T02:56:54;20.98;;;11.35;;
29568;SDS011;16501;51.462;14.346;2023-03-01T02:59:23;25.58;;;11.90;;
29568;SDS011;16501;51.462;14.346;2023-03-01T03:01:49;27.70;;;12.88;;
29568;SDS011;16501;51.462;14.346;2023-03-01T03:04:16;26.80;;;10.57;;
29568;SDS011;16501;51.462;14.346;2023-03-01T03:06:46;27.30;;;11.07;;
29568;SDS011;16501;51.462;14.346;2023-03-01T03:09:12;29.63;;;11.93;;
29568;SDS011;16501;51.462;14.346;2023-03-01T03:11:37;25.13;;;11.40;;
29568;SDS011;16501;51.462;14.346;2023-03-01T03:14:04;27.88;;;11.77;;
29568;SDS011;16501;51.462;14.346;2023-03-01T03:16:29;25.30;;;11.32;;
29568;SDS011;16501;51.462;14.346;2023-03-01T03:18:55;27.98;;;11.73;;
29568;SDS011;16501;51.462;14.346;2023-03-01T03:21:30;26.92;;;11.38;;
29568;SDS011;16501;51.462;14.346;2023-03-01T03:23:55;25.88;;;11.32;;
29568;SDS011;16501;51.462;14.346;2023-03-01T03:26:21;26.42;;;12.07;;
29568;SDS011;16501;51.462;14.346;2023-03-01T03:28:47;22.85;;;11.25;;
29568;SDS011;16501;51.462;14.346;2023-03-01T03:31:12;23.85;;;11.48;;
29568;SDS011;16501;51.462;14.346;2023-03-01T03:33:38;32.95;;;10.77;;
29568;SDS011;16501;51.462;14.346;2023-03-01T03:36:03;23.13;;;10.95;;
29568;SDS011;16501;51.462;14.346;2023-03-01T03:38:28;24.67;;;11.45;;
29568;SDS011;16501;51.462;14.346;2023-03-01T03:41:01;31.17;;;12.75;;
29568;SDS011;16501;51.462;14.346;2023-03-01T03:43:27;22.65;;;11.18;;
29568;SDS011;16501;51.462;14.346;2023-03-01T03:45:53;23.55;;;11.18;;
29568;SDS011;16501;51.462;14.346;2023-03-01T03:48:19;26.50;;;11.60;;
29568;SDS011;16501;51.462;14.346;2023-03-01T03:50:48;30.73;;;11.30;;
29568;SDS011;16501;51.462;14.346;2023-03-01T03:53:13;25.15;;;10.95;;
29568;SDS011;16501;51.462;14.346;2023-03-01T03:55:40;27.95;;;11.73;;
29568;SDS011;16501;51.462;14.346;2023-03-01T03:58:06;28.60;;;11.50;;
29568;SDS011;16501;51.462;14.346;2023-03-01T04:00:32;31.15;;;12.27;;
29568;SDS011;16501;51.462;14.346;2023-03-01T04:02:58;25.05;;;11.48;;
29568;SDS011;16501;51.462;14.346;2023-03-01T04:05:23;34.15;;;12.32;;
29568;SDS011;16501;51.462;14.346;2023-03-01T04:07:48;27.08;;;10.77;;
29568;SDS011;16501;51.462;14.346;2023-03-01T04:10:14;24.20;;;10.88;;
29568;SDS011;16501;51.462;14.346;2023-03-01T04:12:40;23.80;;;11.88;;
29568;SDS011;16501;51.462;14.346;2023-03-01T04:15:06;29.17;;;12.07;;
29568;SDS011;16501;51.462;14.346;2023-03-01T04:17:45;30.05;;;12.48;;
29568;SDS011;16501;51.462;14.346;2023-03-01T04:20:11;24.52;;;11.20;;
29568;SDS011;16501;51.462;14.346;2023-03-01T04:22:38;28.73;;;12.45;;
29568;SDS011;16501;51.462;14.346;2023-03-01T04:25:03;30.20;;;11.20;;
29568;SDS011;16501;51.462;14.346;2023-03-01T04:27:33;27.85;;;11.82;;
29568;SDS011;16501;51.462;14.346;2023-03-01T04:29:58;27.25;;;11.77;;
29568;SDS011;16501;51.462;14.346;2023-03-01T04:32:23;29.23;;;11.88;;
29568;SDS011;16501;51.462;14.346;2023-03-01T04:34:50;31.08;;;12.52;;
29568;SDS011;16501;51.462;14.346;2023-03-01T04:37:15;32.17;;;11.82;;
29568;SDS011;16501;51.462;14.346;2023-03-01T04:39:40;42.15;;;12.48;;
29568;SDS011;16501;51.462;14.346;2023-03-01T04:42:10;25.30;;;11.85;;
29568;SDS011;16501;51.462;14.346;2023-03-01T04:44:36;28.30;;;12.30;;
29568;SDS011;16501;51.462;14.346;2023-03-01T04:47:01;29.15;;;11.85;;
29568;SDS011;16501;51.462;14.346;2023-03-01T04:49:26;26.98;;;11.45;;
29568;SDS011;16501;51.462;14.346;2023-03-01T04:51:52;31.00;;;12.27;;
29568;SDS011;16501;51.462;14.346;2023-03-01T04:54:17;24.20;;;11.00;;
29568;SDS011;16501;51.462;14.346;2023-03-01T04:56:43;30.74;;;11.92;;
29568;SDS011;16501;51.462;14.346;2023-03-01T04:59:09;29.00;;;11.63;;
29568;SDS011;16501;51.462;14.346;2023-03-01T05:01:35;33.28;;;12.07;;
29568;SDS011;16501;51.462;14.346;2023-03-01T05:04:00;27.33;;;12.00;;
29568;SDS011;16501;51.462;14.346;2023-03-01T05:06:43;30.80;;;11.95;;
29568;SDS011;16501;51.462;14.346;2023-03-01T05:09:08;25.10;;;11.35;;
29568;SDS011;16501;51.462;14.346;2023-03-01T05:11:34;27.40;;;11.73;;
29568;SDS011;16501;51.462;14.346;2023-03-01T05:14:02;30.02;;;12.30;;
29568;SDS011;16501;51.462;14.346;2023-03-01T05:16:31;27.30;;;11.88;;
29568;SDS011;16501;51.462;14.346;2023-03-01T05:18:58;30.83;;;13.02;;
29568;SDS011;16501;51.462;14.346;2023-03-01T05:21:24;27.90;;;11.05;;
29568;SDS011;16501;51.462;14.346;2023-03-01T05:23:49;29.92;;;11.23;;
29568;SDS011;16501;51.462;14.346;2023-03-01T05:26:15;34.30;;;13.35;;
29568;SDS011;16501;51.462;14.346;2023-03-01T05:28:41;31.63;;;11.95;;
29568;SDS011;16501;51.462;14.346;2023-03-01T05:31:06;20.83;;;10.40;;
29568;SDS011;16501;51.462;14.346;2023-03-01T05:33:50;27.33;;;12.18;;
29568;SDS011;16501;51.462;14.346;2023-03-01T05:36:15;30.83;;;10.98;;
29568;SDS011;16501;51.462;14.346;2023-03-01T05:38:40;35.75;;;13.55;;
29568;SDS011;16501;51.462;14.346;2023-03-01T05:41:05;34.40;;;13.02;;
29568;SDS011;16501;51.462;14.346;2023-03-01T05:43:38;30.98;;;12.82;;
29568;SDS011;16501;51.462;14.346;2023-03-01T05:46:06;36.53;;;13.30;;
29568;SDS011;16501;51.462;14.346;2023-03-01T05:48:31;26.58;;;12.00;;
29568;SDS011;16501;51.462;14.346;2023-03-01T05:50:58;27.40;;;12.40;;
29568;SDS011;16501;51.462;14.346;2023-03-01T05:53:24;30.60;;;12.75;;
29568;SDS011;16501;51.462;14.346;2023-03-01T05:55:51;31.33;;;12.82;;
29568;SDS011;16501;51.462;14.346;2023-03-01T05:58:18;37.50;;;13.63;;
29568;SDS011;16501;51.462;14.346;2023-03-01T06:00:44;33.95;;;14.00;;
29568;SDS011;16501;51.462;14.346;2023-03-01T06:03:11;30.27;;;12.75;;
29568;SDS011;16501;51.462;14.346;2023-03-01T06:05:38;36.72;;;13.13;;
29568;SDS011;16501;51.462;14.346;2023-03-01T06:08:04;25.83;;;12.68;;
29568;SDS011;16501;51.462;14.346;2023-03-01T06:10:29;29.20;;;12.65;;
29568;SDS011;16501;51.462;14.346;2023-03-01T06:12:54;25.30;;;12.10;;
29568;SDS011;16501;51.462;14.346;2023-03-01T06:15:20;37.72;;;12.96;;
29568;SDS011;16501;51.462;14.346;2023-03-01T06:17:45;36.15;;;13.10;;
29568;SDS011;16501;51.462;14.346;2023-03-01T06:20:12;32.13;;;12.10;;
29568;SDS011;16501;51.462;14.346;2023-03-01T06:22:39;29.65;;;12.80;;
29568;SDS011;16501;51.462;14.346;2023-03-01T06:25:05;32.05;;;12.85;;
29568;SDS011;16501;51.462;14.346;2023-03-01T06:27:32;39.78;;;13.70;;
29568;SDS011;16501;51.462;14.346;2023-03-01T06:29:57;33.40;;;13.15;;
29568;SDS011;16501;51.462;14.346;2023-03-01T06:32:22;33.14;;;13.18;;
29568;SDS011;16501;51.462;14.346;2023-03-01T06:34:48;34.53;;;13.32;;
29568;SDS011;16501;51.462;14.346;2023-03-01T06:37:13;29.45;;;12.65;;
29568;SDS011;16501;51.462;14.346;2023-03-01T06:39:40;29.48;;;13.27;;
29568;SDS011;16501;51.462;14.346;2023-03-01T06:42:05;31.35;;;14.07;;
29568;SDS011;16501;51.462;14.346;2023-03-01T06:44:30;31.08;;;15.23;;
29568;SDS011;16501;51.462;14.346;2023-03-01T06:46:55;36.33;;;15.05;;
29568;SDS011;16501;51.462;14.346;2023-03-01T06:49:21;34.28;;;15.85;;
29568;SDS011;16501;51.462;14.346;2023-03-01T06:51:46;36.78;;;16.83;;
29568;SDS011;16501;51.462;14.346;2023-03-01T06:54:11;33.22;;;14.68;;
29568;SDS011;16501;51.462;14.346;2023-03-01T06:56:36;34.95;;;14.70;;
29568;SDS011;16501;51.462;14.346;2023-03-01T06:59:02;42.97;;;14.40;;
29568;SDS011;16501;51.462;14.346;2023-03-01T07:01:28;29.08;;;14.35;;
29568;SDS011;16501;51.462;14.346;2023-03-01T07:03:53;39.47;;;16.08;;
29568;SDS011;16501;51.462;14.346;2023-03-01T07:06:18;35.30;;;16.80;;
29568;SDS011;16501;51.462;14.346;2023-03-01T07:08:44;36.28;;;17.10;;
29568;SDS011;16501;51.462;14.346;2023-03-01T07:11:09;38.75;;;18.17;;
29568;SDS011;16501;51.462;14.346;2023-03-01T07:13:35;38.50;;;18.10;;
29568;SDS011;16501;51.462;14.346;2023-03-01T07:16:00;39.85;;;19.27;;
29568;SDS011;16501;51.462;14.346;2023-03-01T07:18:25;40.92;;;18.70;;
29568;SDS011;16501;51.462;14.346;2023-03-01T07:20:50;40.67;;;18.23;;
29568;SDS011;16501;51.462;14.346;2023-03-01T07:23:15;45.05;;;19.92;;
29568;SDS011;16501;51.462;14.346;2023-03-01T07:25:41;42.35;;;18.10;;
29568;SDS011;16501;51.462;14.346;2023-03-01T07:28:06;38.35;;;17.90;;
29568;SDS011;16501;51.462;14.346;2023-03-01T07:30:31;37.05;;;19.25;;
29568;SDS011;16501;51.462;14.346;2023-03-01T07:32:57;39.80;;;18.65;;
29568;SDS011;16501;51.462;14.346;2023-03-01T07:35:23;46.90;;;19.77;;
29568;SDS011;16501;51.462;14.346;2023-03-01T07:37:51;44.65;;;19.33;;
29568;SDS011;16501;51.462;14.346;2023-03-01T07:40:16;37.80;;;19.42;;
29568;SDS011;16501;51.462;14.346;2023-03-01T07:42:41;38.72;;;18.33;;
29568;SDS011;16501;51.462;14.346;2023-03-01T07:45:07;39.28;;;18.70;;
29568;SDS011;16501;51.462;14.346;2023-03-01T07:47:32;40.75;;;20.73;;
29568;SDS011;16501;51.462;14.346;2023-03-01T07:49:58;46.33;;;22.25;;
29568;SDS011;16501;51.462;14.346;2023-03-01T07:52:23;43.72;;;21.60;;
29568;SDS011;16501;51.462;14.346;2023-03-01T07:57:35;43.08;;;21.40;;
29568;SDS011;16501;51.462;14.346;2023-03-01T08:00:00;37.47;;;20.80;;
29568;SDS011;16501;51.462;14.346;2023-03-01T08:02:26;37.40;;;19.38;;
29568;SDS011;16501;51.462;14.346;2023-03-01T08:04:51;39.75;;;20.88;;
29568;SDS011;16501;51.462;14.346;2023-03-01T08:07:16;41.00;;;19.60;;
29568;SDS011;16501;51.462;14.346;2023-03-01T08:09:41;40.60;;;20.52;;
29568;SDS011;16501;51.462;14.346;2023-03-01T08:12:07;39.17;;;19.40;;
29568;SDS011;16501;51.462;14.346;2023-03-01T08:14:33;44.28;;;20.83;;
29568;SDS011;16501;51.462;14.346;2023-03-01T08:16:58;45.63;;;20.27;;
29568;SDS011;16501;51.462;14.346;2023-03-01T08:19:23;43.90;;;20.58;;
29568;SDS011;16501;51.462;14.346;2023-03-01T08:21:48;45.80;;;21.48;;
29568;SDS011;16501;51.462;14.346;2023-03-01T08:24:14;43.97;;;20.60;;
29568;SDS011;16501;51.462;14.346;2023-03-01T08:26:39;44.05;;;21.08;;
29568;SDS011;16501;51.462;14.346;2023-03-01T08:29:04;47.00;;;22.20;;
29568;SDS011;16501;51.462;14.346;2023-03-01T08:31:38;47.65;;;22.17;;
29568;SDS011;16501;51.462;14.346;2023-03-01T08:34:08;44.97;;;20.45;;
29568;SDS011;16501;51.462;14.346;2023-03-01T08:36:40;48.65;;;20.98;;
29568;SDS011;16501;51.462;14.346;2023-03-01T08:39:07;40.60;;;19.77;;
29568;SDS011;16501;51.462;14.346;2023-03-01T08:41:34;43.78;;;20.50;;
29568;SDS011;16501;51.462;14.346;2023-03-01T08:44:01;47.55;;;20.35;;
29568;SDS011;16501;51.462;14.346;2023-03-01T08:46:27;42.95;;;20.58;;
29568;SDS011;16501;51.462;14.346;2023-03-01T08:48:54;47.28;;;21.05;;
29568;SDS011;16501;51.462;14.346;2023-03-01T08:51:19;54.75;;;22.70;;
29568;SDS011;16501;51.462;14.346;2023-03-01T08:53:45;45.78;;;20.73;;
29568;SDS011;16501;51.462;14.346;2023-03-01T08:56:11;46.53;;;19.73;;
29568;SDS011;16501;51.462;14.346;2023-03-01T08:58:37;39.45;;;20.20;;
29568;SDS011;16501;51.462;14.346;2023-03-01T09:01:09;39.95;;;19.48;;
29568;SDS011;16501;51.462;14.346;2023-03-01T09:03:36;39.15;;;20.33;;
29568;SDS011;16501;51.462;14.346;2023-03-01T09:06:02;38.35;;;18.70;;
29568;SDS011;16501;51.462;14.346;2023-03-01T09:08:27;41.60;;;19.67;;
29568;SDS011;16501;51.462;14.346;2023-03-01T09:10:53;37.35;;;18.60;;
29568;SDS011;16501;51.462;14.346;2023-03-01T09:13:18;41.33;;;20.03;;
29568;SDS011;16501;51.462;14.346;2023-03-01T09:15:44;36.72;;;19.15;;
29568;SDS011;16501;51.462;14.346;2023-03-01T09:18:09;40.80;;;19.03;;
29568;SDS011;16501;51.462;14.346;2023-03-01T09:20:34;35.80;;;17.67;;
29568;SDS011;16501;51.462;14.346;2023-03-01T09:23:00;37.78;;;18.48;;
29568;SDS011;16501;51.462;14.346;2023-03-01T09:25:25;33.22;;;17.13;;
29568;SDS011;16501;51.462;14.346;2023-03-01T09:27:51;39.95;;;18.42;;
29568;SDS011;16501;51.462;14.346;2023-03-01T09:30:17;31.08;;;17.15;;
29568;SDS011;16501;51.462;14.346;2023-03-01T09:32:42;38.53;;;18.15;;
29568;SDS011;16501;51.462;14.346;2023-03-01T09:35:09;35.08;;;17.98;;
29568;SDS011;16501;51.462;14.346;2023-03-01T09:37:35;35.42;;;17.85;;
29568;SDS011;16501;51.462;14.346;2023-03-01T09:40:04;37.25;;;17.27;;
29568;SDS011;16501;51.462;14.346;2023-03-01T09:42:31;36.28;;;18.27;;
29568;SDS011;16501;51.462;14.346;2023-03-01T09:47:30;26.40;;;14.85;;
29568;SDS011;16501;51.462;14.346;2023-03-01T09:50:12;30.73;;;16.33;;
29568;SDS011;16501;51.462;14.346;2023-03-01T09:52:39;29.67;;;14.45;;
29568;SDS011;16501;51.462;14.346;2023-03-01T09:55:13;30.92;;;15.77;;
29568;SDS011;16501;51.462;14.346;2023-03-01T09:57:47;26.67;;;12.93;;
29568;SDS011;16501;51.462;14.346;2023-03-01T10:00:33;25.20;;;13.80;;
29568;SDS011;16501;51.462;14.346;2023-03-01T10:03:12;26.65;;;14.40;;
29568;SDS011;16501;51.462;14.346;2023-03-01T10:05:47;27.95;;;14.45;;
29568;SDS011;16501;51.462;14.346;2023-03-01T10:10:57;27.35;;;14.15;;
29568;SDS011;16501;51.462;14.346;2023-03-01T10:18:46;31.20;;;14.27;;
29568;SDS011;16501;51.462;14.346;2023-03-01T10:21:14;23.20;;;12.20;;
29568;SDS011;16501;51.462;14.346;2023-03-01T10:23:43;29.20;;;14.32;;
29568;SDS011;16501;51.462;14.346;2023-03-01T10:29:00;31.05;;;15.93;;
29568;SDS011;16501;51.462;14.346;2023-03-01T10:31:32;32.15;;;15.60;;
29568;SDS011;16501;51.462;14.346;2023-03-01T10:34:07;30.38;;;14.93;;
29568;SDS011;16501;51.462;14.346;2023-03-01T10:36:33;28.67;;;15.00;;
29568;SDS011;16501;51.462;14.346;2023-03-01T10:38:59;29.63;;;15.02;;
29568;SDS011;16501;51.462;14.346;2023-03-01T10:41:28;29.67;;;15.48;;
29568;SDS011;16501;51.462;14.346;2023-03-01T10:43:55;29.00;;;15.10;;
29568;SDS011;16501;51.462;14.346;2023-03-01T10:46:28;24.60;;;14.02;;
29568;SDS011;16501;51.462;14.346;2023-03-01T10:49:05;28.48;;;14.40;;
29568;SDS011;16501;51.462;14.346;2023-03-01T10:51:32;26.10;;;13.10;;
29568;SDS011;16501;51.462;14.346;2023-03-01T10:53:57;33.17;;;14.30;;
29568;SDS011;16501;51.462;14.346;2023-03-01T10:56:23;28.05;;;13.80;;
29568;SDS011;16501;51.462;14.346;2023-03-01T10:59:01;22.13;;;12.82;;
29568;SDS011;16501;51.462;14.346;2023-03-01T11:01:30;24.17;;;11.85;;
29568;SDS011;16501;51.462;14.346;2023-03-01T11:06:32;37.33;;;11.98;;
29568;SDS011;16501;51.462;14.346;2023-03-01T11:08:57;19.95;;;10.73;;
29568;SDS011;16501;51.462;14.346;2023-03-01T11:11:39;21.40;;;10.65;;
29568;SDS011;16501;51.462;14.346;2023-03-01T11:14:17;22.02;;;10.30;;
29568;SDS011;16501;51.462;14.346;2023-03-01T11:16:57;23.27;;;10.77;;
29568;SDS011;16501;51.462;14.346;2023-03-01T11:19:22;20.90;;;11.00;;
29568;SDS011;16501;51.462;14.346;2023-03-01T11:24:17;21.20;;;10.63;;
29568;SDS011;16501;51.462;14.346;2023-03-01T11:26:44;19.75;;;10.73;;
29568;SDS011;16501;51.462;14.346;2023-03-01T11:29:27;20.50;;;10.52;;
29568;SDS011;16501;51.462;14.346;2023-03-01T11:31:56;19.80;;;10.38;;
29568;SDS011;16501;51.462;14.346;2023-03-01T11:34:35;18.83;;;9.80;;
29568;SDS011;16501;51.462;14.346;2023-03-01T11:37:01;21.13;;;11.43;;
29568;SDS011;16501;51.462;14.346;2023-03-01T11:39:36;18.70;;;10.77;;
29568;SDS011;16501;51.462;14.346;2023-03-01T11:42:13;20.23;;;10.25;;
29568;SDS011;16501;51.462;14.346;2023-03-01T11:44:40;22.27;;;10.32;;
29568;SDS011;16501;51.462;14.346;2023-03-01T11:47:13;19.35;;;9.88;;
29568;SDS011;16501;51.462;14.346;2023-03-01T11:50:02;30.63;;;11.77;;
29568;SDS011;16501;51.462;14.346;2023-03-01T12:07:31;18.30;;;9.13;;
29568;SDS011;16501;51.462;14.346;2023-03-01T12:12:40;15.55;;;9.02;;
29568;SDS011;16501;51.462;14.346;2023-03-01T12:20:43;12.60;;;7.78;;
29568;SDS011;16501;51.462;14.346;2023-03-01T12:23:16;14.48;;;7.88;;
29568;SDS011;16501;51.462;14.346;2023-03-01T12:33:40;15.77;;;6.90;;
29568;SDS011;16501;51.462;14.346;2023-03-01T12:38:45;14.30;;;6.88;;
29568;SDS011;16501;51.462;14.346;2023-03-01T12:41:18;17.00;;;7.57;;
29568;SDS011;16501;51.462;14.346;2023-03-01T12:43:49;14.23;;;7.65;;
29568;SDS011;16501;51.462;14.346;2023-03-01T12:48:44;14.77;;;7.43;;
29568;SDS011;16501;51.462;14.346;2023-03-01T12:51:11;14.15;;;7.32;;
29568;SDS011;16501;51.462;14.346;2023-03-01T12:53:41;12.50;;;7.07;;
29568;SDS011;16501;51.462;14.346;2023-03-01T12:56:10;11.77;;;7.43;;
29568;SDS011;16501;51.462;14.346;2023-03-01T13:04:07;15.98;;;8.23;;
29568;SDS011;16501;51.462;14.346;2023-03-01T13:06:47;17.30;;;9.20;;
29568;SDS011;16501;51.462;14.346;2023-03-01T13:09:21;17.33;;;8.55;;
29568;SDS011;16501;51.462;14.346;2023-03-01T13:11:49;15.95;;;8.90;;
29568;SDS011;16501;51.462;14.346;2023-03-01T13:16:46;19.55;;;10.25;;
29568;SDS011;16501;51.462;14.346;2023-03-01T13:19:17;18.15;;;9.40;;
29568;SDS011;16501;51.462;14.346;2023-03-01T13:21:44;17.05;;;8.77;;
29568;SDS011;16501;51.462;14.346;2023-03-01T13:24:29;22.40;;;9.23;;
29568;SDS011;16501;51.462;14.346;2023-03-01T13:29:48;21.08;;;9.35;;
29568;SDS011;16501;51.462;14.346;2023-03-01T13:32:27;15.52;;;8.80;;
29568;SDS011;16501;51.462;14.346;2023-03-01T13:37:26;16.33;;;9.23;;
29568;SDS011;16501;51.462;14.346;2023-03-01T13:39:54;14.82;;;7.82;;
29568;SDS011;16501;51.462;14.346;2023-03-01T13:42:53;21.58;;;9.55;;
29568;SDS011;16501;51.462;14.346;2023-03-01T13:45:25;15.20;;;8.63;;
29568;SDS011;16501;51.462;14.346;2023-03-01T13:48:02;16.67;;;8.73;;
29568;SDS011;16501;51.462;14.346;2023-03-01T13:50:28;18.75;;;8.40;;
29568;SDS011;16501;51.462;14.346;2023-03-01T13:53:01;19.08;;;9.25;;
29568;SDS011;16501;51.462;14.346;2023-03-01T13:57:58;16.05;;;7.93;;
29568;SDS011;16501;51.462;14.346;2023-03-01T14:00:25;17.23;;;8.23;;
29568;SDS011;16501;51.462;14.346;2023-03-01T14:03:04;16.55;;;8.07;;
29568;SDS011;16501;51.462;14.346;2023-03-01T14:05:29;13.60;;;7.18;;
29568;SDS011;16501;51.462;14.346;2023-03-01T14:07:55;12.70;;;7.40;;
29568;SDS011;16501;51.462;14.346;2023-03-01T14:10:20;16.17;;;7.18;;
29568;SDS011;16501;51.462;14.346;2023-03-01T14:12:49;14.13;;;6.47;;
29568;SDS011;16501;51.462;14.346;2023-03-01T14:15:37;11.77;;;6.00;;
29568;SDS011;16501;51.462;14.346;2023-03-01T14:18:14;12.30;;;6.35;;
29568;SDS011;16501;51.462;14.346;2023-03-01T14:20:43;13.15;;;6.65;;
29568;SDS011;16501;51.462;14.346;2023-03-01T14:23:11;12.32;;;6.55;;
29568;SDS011;16501;51.462;14.346;2023-03-01T14:25:37;13.43;;;6.47;;
29568;SDS011;16501;51.462;14.346;2023-03-01T14:30:34;12.02;;;5.72;;
29568;SDS011;16501;51.462;14.346;2023-03-01T14:33:04;18.80;;;6.80;;
29568;SDS011;16501;51.462;14.346;2023-03-01T14:35:32;11.48;;;5.32;;
29568;SDS011;16501;51.462;14.346;2023-03-01T14:37:58;18.27;;;6.93;;
29568;SDS011;16501;51.462;14.346;2023-03-01T14:40:28;13.20;;;6.90;;
29568;SDS011;16501;51.462;14.346;2023-03-01T14:42:53;13.77;;;7.03;;
29568;SDS011;16501;51.462;14.346;2023-03-01T14:45:20;10.88;;;5.95;;
29568;SDS011;16501;51.462;14.346;2023-03-01T14:47:45;8.85;;;4.95;;
29568;SDS011;16501;51.462;14.346;2023-03-01T14:52:39;11.63;;;6.53;;
29568;SDS011;16501;51.462;14.346;2023-03-01T14:55:05;14.07;;;6.85;;
29568;SDS011;16501;51.462;14.346;2023-03-01T14:57:32;10.23;;;6.32;;
29568;SDS011;16501;51.462;14.346;2023-03-01T14:59:58;14.68;;;6.45;;
29568;SDS011;16501;51.462;14.346;2023-03-01T15:02:25;12.00;;;5.65;;
29568;SDS011;16501;51.462;14.346;2023-03-01T15:04:52;18.75;;;7.30;;
29568;SDS011;16501;51.462;14.346;2023-03-01T15:07:17;16.75;;;7.07;;
29568;SDS011;16501;51.462;14.346;2023-03-01T15:09:43;11.38;;;6.22;;
29568;SDS011;16501;51.462;14.346;2023-03-01T15:14:52;10.02;;;5.47;;
29568;SDS011;16501;51.462;14.346;2023-03-01T15:17:25;10.38;;;5.70;;
29568;SDS011;16501;51.462;14.346;2023-03-01T15:19:52;10.57;;;5.43;;
29568;SDS011;16501;51.462;14.346;2023-03-01T15:22:17;14.02;;;6.13;;
29568;SDS011;16501;51.462;14.346;2023-03-01T15:24:47;11.50;;;6.70;;
29568;SDS011;16501;51.462;14.346;2023-03-01T15:27:17;8.90;;;4.97;;
29568;SDS011;16501;51.462;14.346;2023-03-01T15:29:52;11.13;;;5.10;;
29568;SDS011;16501;51.462;14.346;2023-03-01T15:34:49;9.35;;;4.78;;
29568;SDS011;16501;51.462;14.346;2023-03-01T15:39:58;22.83;;;10.23;;
29568;SDS011;16501;51.462;14.346;2023-03-01T15:45:07;15.65;;;6.68;;
29568;SDS011;16501;51.462;14.346;2023-03-01T15:47:33;14.98;;;6.35;;
29568;SDS011;16501;51.462;14.346;2023-03-01T15:49:59;13.20;;;6.45;;
29568;SDS011;16501;51.462;14.346;2023-03-01T15:52:27;11.95;;;5.43;;
29568;SDS011;16501;51.462;14.346;2023-03-01T15:54:56;10.13;;;5.95;;